Time;durP1;ratioP1;P1;durP2;ratioP2;P2;SDS_P1;SDS_P2;PMS_P1;PMS_P2;Temp;Humidity;BMP_temperature;BMP_pressure;BME280_temperature;BME280_humidity;BME280_pressure;Samples;Min_cycle;Max_cycle;Signal;HPM_P1;HPM_P2
2022/10/03 00:00:50;;;;;;;2.77;1.00;;;;;;;14.47;100.00;101361.53;2097036;28;20402;-60
2022/10/03 00:02:29;;;;;;;1.83;0.80;;;;;;;14.52;100.00;101350.66;2095767;28;20437;-59
2022/10/03 00:03:39;;;;;;;4.70;1.50;;;;;;;14.46;100.00;101348.84;2095991;28;20441;-60
2022/10/03 00:05:06;;;;;;;2.87;0.97;;;;;;;14.48;100.00;101349.16;2096896;28;21020;-59
2022/10/03 00:06:22;;;;;;;3.73;1.10;;;;;;;14.50;100.00;101350.28;2096121;28;20997;-60
2022/10/03 00:08:00;;;;;;;5.80;1.07;;;;;;;14.53;100.00;101355.00;2096416;28;20468;-59
2022/10/03 00:09:13;;;;;;;4.00;1.20;;;;;;;14.56;100.00;101353.31;2096365;28;20413;-60
2022/10/03 00:10:22;;;;;;;4.87;1.10;;;;;;;14.58;100.00;101356.44;2096261;28;20524;-59
2022/10/03 00:11:42;;;;;;;5.63;1.20;;;;;;;14.61;100.00;101356.34;2096559;28;20440;-59
2022/10/03 00:13:04;;;;;;;4.90;1.17;;;;;;;14.66;100.00;101349.44;2095912;28;20831;-60
2022/10/03 00:14:28;;;;;;;3.40;1.00;;;;;;;14.66;100.00;101341.84;2097559;28;20428;-59
2022/10/03 00:15:34;;;;;;;4.20;0.80;;;;;;;14.72;100.00;101353.25;2096775;28;20439;-60
2022/10/03 00:16:58;;;;;;;6.80;0.90;;;;;;;14.74;100.00;101353.59;2096480;28;20433;-59
2022/10/03 00:18:11;;;;;;;3.37;1.00;;;;;;;14.19;100.00;101248.81;2096264;28;20515;-59
2022/10/03 00:19:26;;;;;;;2.63;0.83;;;;;;;14.78;100.00;101343.09;2096433;28;20518;-59
2022/10/03 00:21:00;;;;;;;2.33;0.93;;;;;;;14.81;100.00;101340.22;2096340;28;20420;-58
2022/10/03 00:22:17;;;;;;;5.27;1.00;;;;;;;14.84;100.00;101330.97;2070550;28;20476;-59
2022/10/03 00:23:20;;;;;;;3.10;1.50;;;;;;;14.84;100.00;101327.38;2096353;28;20439;-60
2022/10/03 00:24:24;;;;;;;4.60;1.10;;;;;;;14.87;100.00;101326.50;2096811;28;20952;-59
2022/10/03 00:25:27;;;;;;;3.23;1.20;;;;;;;14.89;100.00;101318.44;2096476;28;20440;-59
2022/10/03 00:27:09;;;;;;;5.50;1.00;;;;;;;14.92;100.00;101326.75;2095803;28;20516;-59
2022/10/03 00:28:41;;;;;;;2.73;1.10;;;;;;;14.94;100.00;101326.28;2096198;28;20905;-59
2022/10/03 00:29:55;;;;;;;4.73;1.13;;;;;;;14.92;100.00;101332.31;2095809;28;20433;-59
2022/10/03 00:31:02;;;;;;;2.03;1.10;;;;;;;14.95;100.00;101322.25;2096631;28;20441;-60
2022/10/03 00:32:32;;;;;;;2.73;1.20;;;;;;;14.98;100.00;101322.16;2096118;28;20441;-59
2022/10/03 00:34:18;;;;;;;7.67;1.50;;;;;;;14.99;100.00;101328.50;2096378;28;20451;-59
2022/10/03 00:35:21;;;;;;;6.07;1.27;;;;;;;15.00;100.00;101319.69;2091011;28;20818;-58
2022/10/03 00:36:49;;;;;;;4.20;1.20;;;;;;;15.03;100.00;101321.59;2096405;28;20955;-60
2022/10/03 00:37:55;;;;;;;5.17;1.20;;;;;;;15.05;100.00;101321.94;2096149;28;20938;-59
2022/10/03 00:39:17;;;;;;;3.90;1.50;;;;;;;15.07;100.00;101327.06;2095851;28;20454;-59
2022/10/03 00:41:03;;;;;;;5.73;1.37;;;;;;;15.07;100.00;101325.03;2095565;28;20469;-59
2022/10/03 00:42:40;;;;;;;3.60;0.90;;;;;;;15.05;100.00;101327.50;2096355;28;20453;-60
2022/10/03 00:43:50;;;;;;;2.40;1.00;;;;;;;15.06;100.00;101325.50;2095515;28;20951;-60
2022/10/03 00:45:28;;;;;;;4.23;1.40;;;;;;;15.08;100.00;101321.06;2096876;28;20808;-60
2022/10/03 00:46:54;;;;;;;4.00;1.40;;;;;;;15.09;100.00;101308.66;2096622;28;20406;-59
2022/10/03 00:48:08;;;;;;;5.17;1.93;;;;;;;15.13;100.00;101311.31;2095772;28;20445;-59
2022/10/03 00:49:37;;;;;;;2.43;0.97;;;;;;;15.15;100.00;101318.03;2095532;28;20426;-59
2022/10/03 00:51:02;;;;;;;4.30;1.00;;;;;;;15.20;100.00;101320.25;2095888;28;20988;-60
2022/10/03 00:52:24;;;;;;;3.43;1.20;;;;;;;15.23;100.00;101318.59;2096031;28;20448;-60
2022/10/03 00:53:44;;;;;;;3.80;1.07;;;;;;;15.08;100.00;101295.13;2096397;28;20410;-59
2022/10/03 00:55:02;;;;;;;4.50;1.50;;;;;;;15.25;100.00;101324.50;2095739;28;20900;-59
2022/10/03 00:56:06;;;;;;;5.23;1.20;;;;;;;15.26;100.00;101312.13;2095960;28;21002;-59
2022/10/03 00:57:24;;;;;;;5.37;1.57;;;;;;;15.29;100.00;101317.59;2096137;28;20817;-60
2022/10/03 00:58:44;;;;;;;5.13;1.70;;;;;;;15.31;100.00;101306.75;2096272;28;20457;-59
2022/10/03 01:00:05;;;;;;;4.80;1.50;;;;;;;15.33;100.00;101306.31;2095254;28;20468;-60
2022/10/03 01:01:28;;;;;;;4.43;1.50;;;;;;;15.33;100.00;101312.69;2095265;28;21028;-59
2022/10/03 01:02:54;;;;;;;5.60;1.83;;;;;;;15.36;100.00;101322.19;2096658;28;20780;-60
2022/10/03 01:04:12;;;;;;;8.87;2.60;;;;;;;15.36;100.00;101308.22;2095259;28;20485;-59
2022/10/03 01:05:26;;;;;;;6.23;2.80;;;;;;;15.37;100.00;101309.78;2096245;28;20421;-60
2022/10/03 01:06:47;;;;;;;8.30;2.10;;;;;;;15.39;100.00;101305.31;2095535;28;20415;-59
2022/10/03 01:07:56;;;;;;;10.87;2.47;;;;;;;15.43;100.00;101305.19;2095408;28;20438;-59
2022/10/03 01:09:31;;;;;;;7.13;2.00;;;;;;;15.45;100.00;101299.94;2095716;28;20430;-59
2022/10/03 01:11:01;;;;;;;4.60;2.27;;;;;;;15.45;100.00;101299.94;2095892;28;20617;-59
2022/10/03 01:12:17;;;;;;;3.27;1.90;;;;;;;15.49;100.00;101295.00;2086275;28;20448;-60
2022/10/03 01:13:36;;;;;;;5.37;2.30;;;;;;;15.50;100.00;101293.78;2096367;28;20402;-60
2022/10/03 01:14:59;;;;;;;7.53;2.50;;;;;;;15.04;100.00;101236.63;2096310;28;20440;-60
2022/10/03 01:16:05;;;;;;;4.50;2.23;;;;;;;15.55;100.00;101298.81;2094741;28;20930;-59
2022/10/03 01:17:27;;;;;;;4.83;1.80;;;;;;;15.50;100.00;101300.16;2096227;28;20507;-59
2022/10/03 01:18:43;;;;;;;4.70;1.60;;;;;;;15.47;100.00;101303.84;2095897;28;20457;-59
2022/10/03 01:20:40;;;;;;;4.07;1.77;;;;;;;15.35;100.00;101307.44;2094787;28;20536;-60
2022/10/03 01:21:59;;;;;;;4.70;1.77;;;;;;;15.30;100.00;101302.38;2086283;28;20456;-60
2022/10/03 01:23:38;;;;;;;5.47;1.90;;;;;;;15.24;100.00;101306.97;2089446;28;20593;-59
2022/10/03 01:25:15;;;;;;;5.00;1.90;;;;;;;15.26;100.00;101315.69;2070634;28;20425;-59
2022/10/03 01:26:37;;;;;;;4.60;2.10;;;;;;;15.25;100.00;101311.31;2070381;28;20543;-60
2022/10/03 01:31:08;;;;;;;6.00;1.90;;;;;;;15.32;100.00;101305.50;2096373;28;20457;-59
2022/10/03 01:32:24;;;;;;;5.67;1.80;;;;;;;15.36;100.00;101305.44;2095698;28;20454;-60
2022/10/03 01:33:40;;;;;;;7.63;2.50;;;;;;;15.38;100.00;101300.16;2095227;28;20477;-60
2022/10/03 01:35:21;;;;;;;9.30;2.30;;;;;;;15.39;100.00;101301.72;2096356;28;20806;-60
2022/10/03 01:36:37;;;;;;;4.70;2.17;;;;;;;14.75;100.00;101188.53;2094951;28;21036;-60
2022/10/03 01:38:04;;;;;;;7.70;2.27;;;;;;;15.43;100.00;101297.59;2095865;28;20449;-59
2022/10/03 01:39:11;;;;;;;5.50;1.70;;;;;;;15.45;100.00;101295.13;2096281;28;20945;-59
2022/10/03 01:40:24;;;;;;;5.33;1.83;;;;;;;15.48;100.00;101296.25;2095293;28;20458;-59
2022/10/03 01:41:47;;;;;;;9.23;2.07;;;;;;;15.39;100.00;101276.59;2096265;28;20433;-59
2022/10/03 01:43:18;;;;;;;7.23;2.03;;;;;;;15.52;100.00;101297.69;2096475;28;20911;-59
2022/10/03 01:44:30;;;;;;;7.80;1.70;;;;;;;15.53;100.00;101298.47;2096110;28;20870;-60
2022/10/03 01:45:58;;;;;;;5.93;1.73;;;;;;;15.49;100.00;101303.41;2095907;28;20938;-59
2022/10/03 01:47:20;;;;;;;8.57;2.27;;;;;;;15.46;100.00;101293.91;2095351;28;20513;-60
2022/10/03 01:48:34;;;;;;;9.23;2.03;;;;;;;15.50;100.00;101302.16;2095680;28;20974;-60
2022/10/03 01:49:41;;;;;;;8.20;1.70;;;;;;;15.50;100.00;101302.94;2095258;28;20459;-60
2022/10/03 01:50:47;;;;;;;7.33;2.23;;;;;;;15.52;100.00;101297.69;2095811;28;20432;-60
2022/10/03 01:52:22;;;;;;;6.13;1.63;;;;;;;15.35;100.00;101279.50;2096196;28;20449;-60
2022/10/03 01:53:22;;;;;;;4.53;1.53;;;;;;;15.53;100.00;101296.44;2091821;28;20640;-60
2022/10/03 01:54:49;;;;;;;2.67;1.43;;;;;;;15.52;100.00;101306.06;2097221;28;20440;-60
2022/10/03 01:56:07;;;;;;;4.33;1.30;;;;;;;15.52;100.00;101294.13;2096636;28;20183;-60
2022/10/03 01:57:40;;;;;;;5.77;1.70;;;;;;;15.48;100.00;101299.03;2097108;28;20860;-60
2022/10/03 01:58:57;;;;;;;8.17;1.97;;;;;;;15.46;100.00;101301.50;2094520;28;20939;-60
2022/10/03 02:00:07;;;;;;;6.40;1.70;;;;;;;15.12;100.00;101239.97;2097322;28;20426;-60
2022/10/03 02:01:14;;;;;;;3.70;1.50;;;;;;;15.48;100.00;101299.81;2097304;28;21039;-60
2022/10/03 02:02:59;;;;;;;5.83;1.43;;;;;;;15.50;100.00;101294.56;2098144;28;20766;-60
2022/10/03 02:04:13;;;;;;;1.97;1.10;;;;;;;15.48;100.00;101294.22;2096535;28;20441;-60
2022/10/03 02:05:37;;;;;;;3.50;1.10;;;;;;;15.51;100.00;101300.91;2097859;28;20811;-60
2022/10/03 02:06:57;;;;;;;5.20;1.50;;;;;;;15.04;100.00;101219.09;2091245;28;20455;-59
2022/10/03 02:08:16;;;;;;;6.27;1.40;;;;;;;15.02;100.00;101213.19;2097362;28;20960;-59
2022/10/03 02:09:51;;;;;;;3.63;1.40;;;;;;;15.53;100.00;101290.84;2098212;28;20480;-60
2022/10/03 02:11:09;;;;;;;6.53;1.33;;;;;;;15.55;100.00;101293.22;2096972;28;20437;-60
2022/10/03 02:12:15;;;;;;;3.83;1.00;;;;;;;15.57;100.00;101290.75;2097356;28;21120;-60
2022/10/03 02:13:21;;;;;;;2.20;1.03;;;;;;;15.56;100.00;101287.19;2097656;28;20456;-60
2022/10/03 02:14:30;;;;;;;4.93;1.50;;;;;;;15.59;100.00;101291.88;2097992;28;20432;-60
2022/10/03 02:15:53;;;;;;;3.67;1.00;;;;;;;15.57;100.00;101288.75;2097431;28;20445;-60
2022/10/03 02:17:08;;;;;;;3.97;1.40;;;;;;;15.25;100.00;101221.19;2097754;28;20512;-60
2022/10/03 02:18:20;;;;;;;4.67;1.20;;;;;;;15.61;100.00;101278.22;2097219;28;20471;-60
2022/10/03 02:19:35;;;;;;;4.23;1.17;;;;;;;15.57;100.00;101274.00;2097103;28;20433;-60
2022/10/03 02:20:50;;;;;;;5.20;1.20;;;;;;;15.53;100.00;101276.88;2097616;28;20468;-60
2022/10/03 02:21:54;;;;;;;5.43;1.20;;;;;;;15.55;100.00;101270.84;2097809;28;20937;-59
2022/10/03 02:22:56;;;;;;;2.60;0.90;;;;;;;15.60;100.00;101273.88;2097010;28;20880;-60
2022/10/03 02:24:15;;;;;;;3.00;1.00;;;;;;;15.61;100.00;101269.84;2097626;28;20592;-60
2022/10/03 02:25:30;;;;;;;9.53;1.97;;;;;;;15.57;100.00;101271.97;2097366;28;20452;-59
2022/10/03 02:26:54;;;;;;;7.80;1.40;;;;;;;15.61;100.00;101274.63;2097591;28;20937;-59
2022/10/03 02:27:55;;;;;;;3.20;1.07;;;;;;;15.57;100.00;101271.22;2096535;28;20405;-59
2022/10/03 02:29:19;;;;;;;6.23;1.50;;;;;;;15.61;100.00;101263.47;2097526;28;20429;-59
2022/10/03 02:30:29;;;;;;;4.47;1.07;;;;;;;15.66;100.00;101268.47;2096577;28;20811;-60
2022/10/03 02:31:38;;;;;;;4.33;0.90;;;;;;;15.68;100.00;101266.78;2096818;28;20456;-59
2022/10/03 02:32:44;;;;;;;2.30;1.17;;;;;;;15.73;100.00;101269.03;2097070;28;20480;-59
2022/10/03 02:34:07;;;;;;;6.03;1.03;;;;;;;15.77;100.00;101274.50;2096590;28;20875;-60
2022/10/03 02:35:26;;;;;;;5.33;1.10;;;;;;;15.81;100.00;101278.72;2105269;28;20448;-60
2022/10/03 02:36:54;;;;;;;7.10;1.13;;;;;;;15.86;100.00;101282.94;2102735;28;20937;-60
2022/10/03 02:38:19;;;;;;;3.87;1.20;;;;;;;15.88;100.00;101284.06;2097124;28;20977;-59
2022/10/03 02:39:41;;;;;;;3.00;1.00;;;;;;;15.87;100.00;101279.72;2097135;28;20427;-60
2022/10/03 02:41:06;;;;;;;1.90;0.80;;;;;;;15.87;100.00;101282.50;2096668;28;20422;-60
2022/10/03 02:42:28;;;;;;;4.23;0.90;;;;;;;15.88;100.00;101281.25;2097055;28;20436;-59
2022/10/03 02:43:52;;;;;;;2.30;1.10;;;;;;;15.93;100.00;101283.47;2097192;28;20473;-60
2022/10/03 02:45:17;;;;;;;3.20;1.20;;;;;;;16.00;100.00;101288.06;2097841;28;20421;-59
2022/10/03 02:46:35;;;;;;;5.77;1.00;;;;;;;16.07;100.00;101290.59;2096937;28;20504;-60
2022/10/03 02:47:48;;;;;;;3.33;0.93;;;;;;;16.08;100.00;101290.13;2096056;28;20417;-60
2022/10/03 02:48:57;;;;;;;3.40;1.00;;;;;;;16.10;100.00;101287.69;2097284;28;20444;-60
2022/10/03 02:50:14;;;;;;;3.73;1.13;;;;;;;16.14;100.00;101288.31;2096641;28;20445;-59
2022/10/03 02:51:49;;;;;;;2.77;1.00;;;;;;;16.10;100.00;101270.91;2096793;28;20547;-59
2022/10/03 02:53:28;;;;;;;2.40;1.10;;;;;;;16.21;100.00;101281.69;2096510;28;20964;-59
2022/10/03 02:55:04;;;;;;;3.07;0.90;;;;;;;16.25;100.00;101283.09;2096134;28;20422;-60
2022/10/03 02:56:24;;;;;;;3.87;0.80;;;;;;;16.27;100.00;101280.66;2097179;28;20532;-60
2022/10/03 02:57:24;;;;;;;1.60;0.80;;;;;;;16.31;100.00;101284.13;2096654;28;20429;-60
2022/10/03 02:59:00;;;;;;;4.33;1.00;;;;;;;16.33;100.00;101278.84;2096671;28;20552;-60
2022/10/03 03:00:33;;;;;;;2.57;1.03;;;;;;;16.34;100.00;101288.78;2082429;28;20201;-60
2022/10/03 03:01:48;;;;;;;2.77;1.10;;;;;;;16.33;100.00;101286.44;2087359;28;20446;-60
2022/10/03 03:03:07;;;;;;;3.10;1.23;;;;;;;16.33;100.00;101292.03;2096801;28;20424;-60
2022/10/03 03:04:32;;;;;;;5.90;1.00;;;;;;;16.32;100.00;101280.06;2097117;28;20812;-60
2022/10/03 03:05:47;;;;;;;2.57;1.30;;;;;;;16.35;100.00;101281.19;2097082;28;20847;-60
2022/10/03 03:07:22;;;;;;;2.47;1.03;;;;;;;16.37;100.00;101279.47;2097115;28;20444;-60
2022/10/03 03:08:53;;;;;;;2.30;1.30;;;;;;;16.41;100.00;101279.38;2097588;28;20448;-60
2022/10/03 03:10:27;;;;;;;2.50;0.90;;;;;;;16.42;100.00;101268.97;2096998;28;20456;-60
2022/10/03 03:11:39;;;;;;;2.67;1.03;;;;;;;16.40;100.00;101264.59;2096054;28;20428;-60
2022/10/03 03:13:06;;;;;;;3.77;0.90;;;;;;;16.41;100.00;101265.38;2095539;28;20465;-60
2022/10/03 03:14:28;;;;;;;3.27;1.00;;;;;;;16.45;100.00;101257.66;2096534;28;20423;-60
2022/10/03 03:16:25;;;;;;;3.63;1.07;;;;;;;16.31;100.00;101232.97;2096385;28;20459;-60
2022/10/03 03:17:36;;;;;;;2.40;0.80;;;;;;;16.50;100.00;101265.47;2079171;28;20546;-60
2022/10/03 03:19:09;;;;;;;2.60;0.90;;;;;;;16.52;100.00;101262.97;2079807;28;20587;-59
2022/10/03 03:20:37;;;;;;;3.13;0.80;;;;;;;16.53;100.00;101267.31;2070739;28;20460;-60
2022/10/03 03:21:47;;;;;;;5.93;1.20;;;;;;;16.49;100.00;101275.84;2097464;28;20407;-59
2022/10/03 03:23:06;;;;;;;8.70;1.53;;;;;;;16.40;100.00;101259.00;2096902;28;20425;-60
2022/10/03 03:24:16;;;;;;;5.87;1.33;;;;;;;16.52;100.00;101276.19;2096598;28;20412;-60
2022/10/03 03:25:20;;;;;;;6.07;1.43;;;;;;;16.54;100.00;101280.84;2095610;28;20414;-60
2022/10/03 03:26:21;;;;;;;5.20;1.37;;;;;;;16.57;100.00;101278.41;2097436;28;20934;-60
2022/10/03 03:27:50;;;;;;;8.50;1.77;;;;;;;16.59;100.00;101276.72;2096610;28;21025;-60
2022/10/03 03:29:03;;;;;;;11.77;1.70;;;;;;;16.60;100.00;101283.84;2096331;28;20422;-60
2022/10/03 03:30:11;;;;;;;11.93;2.93;;;;;;;16.57;100.00;101281.97;2094869;28;20434;-60
2022/10/03 03:31:35;;;;;;;8.87;1.80;;;;;;;16.52;100.00;101277.75;2096391;28;20496;-60
2022/10/03 03:32:41;;;;;;;8.40;1.40;;;;;;;16.54;100.00;101285.69;2096889;28;20435;-60
2022/10/03 03:34:14;;;;;;;3.73;1.10;;;;;;;16.52;100.00;101283.34;2097072;28;20442;-60
2022/10/03 03:35:26;;;;;;;1.77;0.80;;;;;;;16.42;100.00;101282.97;2081564;28;20439;-59
2022/10/03 03:36:36;;;;;;;2.10;0.90;;;;;;;16.30;100.00;101279.72;2096504;28;20527;-59
2022/10/03 03:38:29;;;;;;;2.07;0.80;;;;;;;16.25;100.00;101277.50;2095781;28;20434;-60
2022/10/03 03:39:49;;;;;;;2.07;0.77;;;;;;;16.21;100.00;101271.28;2095681;28;20479;-59
2022/10/03 03:41:13;;;;;;;2.73;0.90;;;;;;;16.21;100.00;101262.13;2079079;28;20925;-60
2022/10/03 03:42:41;;;;;;;2.87;0.80;;;;;;;16.14;100.00;101268.75;2096523;28;20429;-60
2022/10/03 03:43:50;;;;;;;5.17;1.10;;;;;;;16.20;100.00;101268.94;2095813;28;20799;-60
2022/10/03 03:45:18;;;;;;;2.63;0.80;;;;;;;16.24;100.00;101256.38;2097074;28;20422;-59
2022/10/03 03:47:06;;;;;;;4.63;1.40;;;;;;;16.11;100.00;101263.28;2097128;28;20987;-60
2022/10/03 03:48:41;;;;;;;2.10;0.73;;;;;;;16.07;100.00;101259.81;2084105;28;20493;-60
2022/10/03 03:49:48;;;;;;;3.33;0.70;;;;;;;16.11;100.00;101255.69;2080687;28;20532;-60
2022/10/03 03:51:14;;;;;;;2.80;0.80;;;;;;;16.07;100.00;101263.41;2079989;28;20489;-60
2022/10/03 03:52:52;;;;;;;4.87;1.03;;;;;;;16.12;100.00;101265.63;2081171;28;20481;-59
2022/10/03 03:54:23;;;;;;;3.20;0.87;;;;;;;16.03;100.00;101273.94;2089684;28;20877;-60
2022/10/03 03:55:59;;;;;;;2.27;0.90;;;;;;;15.95;100.00;101255.88;2096536;28;20425;-60
2022/10/03 03:57:18;;;;;;;2.80;0.80;;;;;;;16.01;100.00;101272.84;2096711;28;21723;-60
2022/10/03 03:58:36;;;;;;;3.47;1.03;;;;;;;15.94;100.00;101270.31;2096084;28;20473;-60
2022/10/03 03:59:58;;;;;;;2.30;0.83;;;;;;;15.94;100.00;101267.50;2096574;28;20934;-59
2022/10/03 04:01:30;;;;;;;2.17;0.90;;;;;;;15.98;100.00;101270.97;2096681;28;20418;-60
2022/10/03 04:03:01;;;;;;;1.77;0.80;;;;;;;15.95;100.00;101271.84;2095799;28;20444;-60
2022/10/03 04:04:14;;;;;;;5.47;1.00;;;;;;;15.92;100.00;101270.75;2095239;28;20817;-60
2022/10/03 04:05:49;;;;;;;3.20;0.80;;;;;;;15.91;100.00;101269.19;2095772;28;20448;-59
2022/10/03 04:07:14;;;;;;;1.60;0.97;;;;;;;15.89;100.00;101268.09;2096388;28;20416;-60
2022/10/03 04:08:39;;;;;;;2.67;1.20;;;;;;;15.87;100.00;101265.72;2096479;28;20421;-60
2022/10/03 04:09:51;;;;;;;2.33;1.10;;;;;;;15.89;100.00;101266.06;2095916;28;20433;-60
2022/10/03 04:11:12;;;;;;;4.90;1.07;;;;;;;15.85;100.00;101271.00;2096796;28;20441;-59
2022/10/03 04:12:23;;;;;;;3.33;1.03;;;;;;;15.88;100.00;101275.69;2096309;28;20418;-60
2022/10/03 04:13:52;;;;;;;2.80;1.10;;;;;;;15.90;100.00;101275.22;2096044;28;20961;-60
2022/10/03 04:14:56;;;;;;;5.27;1.30;;;;;;;15.91;100.00;101276.78;2093581;28;20520;-59
2022/10/03 04:18:56;;;;;;;2.13;1.10;;;;;;;15.86;100.00;101291.34;2096510;28;20432;-60
2022/10/03 04:19:53;;;;;;;3.30;1.47;;;;;;;15.75;100.00;101290.94;2095563;28;20452;-59
2022/10/03 04:21:30;;;;;;;2.53;1.33;;;;;;;15.70;100.00;101297.88;2096274;28;20422;-60
2022/10/03 04:22:43;;;;;;;3.10;0.90;;;;;;;15.68;100.00;101300.31;2096851;28;20453;-60
2022/10/03 04:24:03;;;;;;;2.67;1.20;;;;;;;15.69;100.00;101301.13;2095371;28;20413;-59
2022/10/03 04:25:40;;;;;;;3.47;1.10;;;;;;;15.67;100.00;101295.97;2096817;28;20401;-58
2022/10/03 04:27:06;;;;;;;3.60;0.97;;;;;;;15.62;100.00;101307.72;2093956;28;20474;-58
2022/10/03 04:28:25;;;;;;;2.53;1.10;;;;;;;15.63;100.00;101312.06;2095088;28;20425;-57
2022/10/03 04:29:56;;;;;;;2.33;1.00;;;;;;;15.52;100.00;101322.81;2095642;28;20409;-57
2022/10/03 04:31:16;;;;;;;3.33;1.00;;;;;;;15.46;100.00;101329.41;2096149;28;20414;-57
2022/10/03 04:32:44;;;;;;;2.73;0.90;;;;;;;15.43;100.00;101333.88;2095772;28;20917;-58
2022/10/03 04:34:06;;;;;;;1.70;0.87;;;;;;;15.42;100.00;101326.75;2095587;28;20441;-57
2022/10/03 04:35:37;;;;;;;3.20;1.53;;;;;;;15.45;100.00;101333.44;2096255;28;20969;-58
2022/10/03 04:37:10;;;;;;;4.13;2.27;;;;;;;15.46;100.00;101329.41;2097481;28;20411;-57
2022/10/03 04:38:20;;;;;;;4.70;2.10;;;;;;;15.55;100.00;101340.69;2094607;28;21080;-58
2022/10/03 04:39:41;;;;;;;5.53;2.40;;;;;;;15.55;100.00;101333.13;2096047;28;20868;-57
2022/10/03 04:40:41;;;;;;;2.83;1.10;;;;;;;15.66;100.00;101339.13;2094646;28;20858;-58
2022/10/03 04:42:08;;;;;;;2.87;1.30;;;;;;;15.64;100.00;101346.41;2094862;28;20433;-57
2022/10/03 04:43:23;;;;;;;4.40;2.20;;;;;;;15.69;100.00;101346.63;2070781;28;20370;-58
2022/10/03 04:44:36;;;;;;;5.87;2.47;;;;;;;15.75;100.00;101358.78;2094879;28;20453;-57
2022/10/03 04:45:56;;;;;;;5.67;2.63;;;;;;;15.75;100.00;101361.59;2094310;28;20972;-57
2022/10/03 04:47:25;;;;;;;2.73;1.10;;;;;;;15.71;100.00;101368.50;2092451;28;20927;-57
2022/10/03 04:48:43;;;;;;;2.93;1.23;;;;;;;15.49;100.00;101376.03;2091486;28;20473;-57
2022/10/03 04:49:43;;;;;;;3.00;1.33;;;;;;;15.46;100.00;101386.06;2092094;28;20972;-58
2022/10/03 04:51:02;;;;;;;9.83;1.30;;;;;;;15.40;100.00;101382.28;2092119;28;20975;-58
2022/10/03 04:52:15;;;;;;;8.93;1.97;;;;;;;15.33;100.00;101381.72;2093020;28;20187;-57
2022/10/03 04:53:45;;;;;;;2.80;1.23;;;;;;;15.36;100.00;101386.44;2092573;28;20513;-58
2022/10/03 04:55:05;;;;;;;5.17;1.60;;;;;;;15.28;100.00;101387.84;2093151;28;20458;-57
2022/10/03 04:56:33;;;;;;;2.97;1.50;;;;;;;15.16;100.00;101394.97;2093829;28;20448;-58
2022/10/03 04:59:27;;;;;;;3.70;1.33;;;;;;;15.12;100.00;101399.09;2094382;28;20697;-57
2022/10/03 05:00:55;;;;;;;5.17;1.30;;;;;;;15.06;100.00;101398.84;2094810;28;20421;-57
2022/10/03 05:02:06;;;;;;;3.77;1.70;;;;;;;14.99;100.00;101399.06;2103095;28;20451;-57
2022/10/03 05:03:44;;;;;;;3.80;1.03;;;;;;;14.91;100.00;101400.50;2101260;28;20452;-56
2022/10/03 05:05:26;;;;;;;2.60;1.20;;;;;;;14.88;100.00;101403.41;2092197;28;20449;-56
2022/10/03 05:06:31;;;;;;;4.87;1.60;;;;;;;14.91;100.00;101416.47;2074118;28;20571;-57
2022/10/03 05:08:05;;;;;;;3.93;1.57;;;;;;;14.89;100.00;101408.53;2090648;28;21045;-57
2022/10/03 05:09:23;;;;;;;5.03;2.00;;;;;;;14.98;100.00;101421.84;2093764;28;20448;-60
2022/10/03 05:10:42;;;;;;;4.67;1.83;;;;;;;15.01;100.00;101424.53;2093386;28;20445;-60
2022/10/03 05:12:05;;;;;;;6.47;1.37;;;;;;;15.02;100.00;101425.31;2093311;28;20954;-59
2022/10/03 05:13:10;;;;;;;2.53;1.00;;;;;;;15.03;100.00;101436.06;2092993;28;20452;-60
2022/10/03 05:14:48;;;;;;;8.90;1.70;;;;;;;15.10;100.00;101435.03;2093449;28;20881;-60
2022/10/03 05:15:51;;;;;;;4.13;1.30;;;;;;;15.14;100.00;101435.72;2094652;28;20873;-60
2022/10/03 05:17:16;;;;;;;2.43;1.47;;;;;;;15.19;100.00;101430.38;2093571;28;20557;-60
2022/10/03 05:18:20;;;;;;;2.93;1.13;;;;;;;15.23;100.00;101433.88;2094345;28;20440;-60
2022/10/03 05:20:01;;;;;;;3.67;1.37;;;;;;;14.76;100.00;101351.16;2092294;28;20468;-60
2022/10/03 05:21:23;;;;;;;4.43;1.50;;;;;;;14.73;100.00;101336.06;2090747;28;20831;-59
2022/10/03 05:22:48;;;;;;;4.17;1.73;;;;;;;15.36;100.00;101422.72;2092823;28;20418;-60
2022/10/03 05:24:02;;;;;;;5.70;1.40;;;;;;;15.36;100.00;101426.28;2092673;28;20450;-60
2022/10/03 05:25:38;;;;;;;4.33;1.77;;;;;;;15.32;100.00;101417.22;2092778;28;20515;-60
2022/10/03 05:26:45;;;;;;;4.03;1.30;;;;;;;15.38;100.00;101418.25;2084750;28;20457;-59
2022/10/03 05:27:58;;;;;;;4.00;1.50;;;;;;;15.00;100.00;101371.94;2092267;28;20481;-60
2022/10/03 05:29:16;;;;;;;4.33;1.27;;;;;;;15.32;100.00;101425.59;2091227;28;20841;-60
2022/10/03 05:30:35;;;;;;;3.43;1.03;;;;;;;15.31;100.00;101417.69;2091107;28;20970;-60
2022/10/03 05:31:50;;;;;;;3.30;1.10;;;;;;;14.62;100.00;101307.72;2092707;28;20976;-60
2022/10/03 05:33:02;;;;;;;3.23;1.10;;;;;;;15.30;100.00;101402.91;2093237;28;21022;-60
2022/10/03 05:34:27;;;;;;;8.93;2.20;;;;;;;15.32;100.00;101397.66;2092115;28;20450;-60
2022/10/03 05:35:46;;;;;;;4.13;1.20;;;;;;;15.34;100.00;101397.25;2092748;28;20422;-60
2022/10/03 05:37:17;;;;;;;3.03;1.10;;;;;;;15.32;100.00;101396.88;2091471;28;21380;-60
2022/10/03 05:38:18;;;;;;;5.27;1.73;;;;;;;15.35;100.00;101384.84;2092255;28;20577;-60
2022/10/03 05:39:44;;;;;;;2.47;1.40;;;;;;;15.36;100.00;101390.00;2092286;28;20445;-57
2022/10/03 05:41:10;;;;;;;5.73;1.43;;;;;;;15.32;100.00;101400.44;2092184;28;20438;-58
2022/10/03 05:42:26;;;;;;;1.70;0.97;;;;;;;15.33;100.00;101401.28;2091986;28;20578;-57
2022/10/03 05:43:53;;;;;;;4.17;1.40;;;;;;;15.34;100.00;101403.63;2092274;28;20443;-57
2022/10/03 05:45:15;;;;;;;3.90;1.70;;;;;;;15.37;100.00;101397.13;2091724;28;20467;-57
2022/10/03 05:46:32;;;;;;;3.27;1.20;;;;;;;15.38;100.00;101395.13;2093320;28;20536;-57
2022/10/03 05:47:48;;;;;;;3.20;1.60;;;;;;;15.39;100.00;101388.31;2093976;28;20422;-57
2022/10/03 05:49:10;;;;;;;3.13;1.00;;;;;;;15.38;100.00;101390.31;2094309;28;20446;-57
2022/10/03 05:50:48;;;;;;;3.83;1.40;;;;;;;15.39;100.00;101389.09;2092524;28;20450;-57
2022/10/03 05:52:36;;;;;;;3.07;1.20;;;;;;;15.40;100.00;101389.88;2092211;28;20524;-57
2022/10/03 05:54:21;;;;;;;2.83;1.00;;;;;;;15.38;100.00;101401.47;2093651;28;21107;-58
2022/10/03 05:55:35;;;;;;;3.63;1.40;;;;;;;15.35;100.00;101396.81;2092438;28;20869;-57
2022/10/03 05:56:52;;;;;;;3.47;1.13;;;;;;;15.40;100.00;101406.63;2092565;28;20452;-57
2022/10/03 05:58:25;;;;;;;3.17;0.90;;;;;;;15.46;100.00;101399.25;2092477;28;20441;-57
2022/10/03 05:59:50;;;;;;;4.83;1.03;;;;;;;15.53;100.00;101404.63;2092642;28;20506;-57
2022/10/03 06:01:12;;;;;;;2.23;0.97;;;;;;;15.59;100.00;101400.84;2092810;28;20444;-58
2022/10/03 06:02:31;;;;;;;4.00;1.30;;;;;;;15.63;100.00;101404.28;2094610;28;20860;-57
2022/10/03 06:03:59;;;;;;;1.70;0.87;;;;;;;15.65;100.00;101401.03;2092688;28;20428;-56
2022/10/03 06:05:05;;;;;;;3.17;1.17;;;;;;;15.61;100.00;101398.38;2093067;28;20476;-58
2022/10/03 06:06:42;;;;;;;3.67;1.20;;;;;;;15.55;100.00;101393.78;2092949;28;20593;-57
2022/10/03 06:07:56;;;;;;;2.50;1.40;;;;;;;15.58;100.00;101393.66;2092659;28;20829;-56
2022/10/03 06:09:26;;;;;;;4.33;1.40;;;;;;;15.63;100.00;101395.13;2092933;28;20441;-57
2022/10/03 06:10:49;;;;;;;3.60;1.50;;;;;;;15.61;100.00;101405.94;2092604;28;21039;-56
2022/10/03 06:12:02;;;;;;;4.63;1.33;;;;;;;15.69;100.00;101410.09;2093971;28;21011;-57
2022/10/03 06:13:11;;;;;;;3.67;1.60;;;;;;;15.73;100.00;101413.56;2094197;28;20518;-57
2022/10/03 06:14:27;;;;;;;4.53;1.40;;;;;;;15.77;100.00;101419.81;2092334;28;20547;-57
2022/10/03 06:16:23;;;;;;;3.43;1.90;;;;;;;15.36;100.00;101350.13;2093540;28;20436;-58
2022/10/03 06:17:38;;;;;;;4.27;1.83;;;;;;;15.84;100.00;101430.75;2083358;28;20465;-57
2022/10/03 06:18:57;;;;;;;2.40;1.20;;;;;;;15.86;100.00;101433.88;2083360;28;20480;-58
2022/10/03 06:20:16;;;;;;;8.23;1.47;;;;;;;15.93;100.00;101428.06;2082423;28;21060;-57